createdAt,value
2022-11-04T00:02:34.987Z,86
2022-11-04T00:06:00.145Z,86
2022-11-04T00:09:25.400Z,86
2022-11-04T00:12:50.657Z,86
2022-11-04T00:16:15.908Z,86
2022-11-04T00:19:41.163Z,86
2022-11-04T00:23:06.752Z,86
2022-11-04T00:26:31.648Z,86
2022-11-04T00:29:56.917Z,86
2022-11-04T00:33:22.151Z,85
2022-11-04T00:36:47.407Z,86
2022-11-04T00:40:12.678Z,87
2022-11-04T00:43:37.925Z,87
2022-11-04T00:47:03.226Z,87
2022-11-04T00:50:28.453Z,87
2022-11-04T00:53:53.695Z,87
2022-11-04T00:57:18.991Z,87
2022-11-04T01:00:44.226Z,88
2022-11-04T01:04:09.500Z,88
2022-11-04T01:07:37.384Z,88
2022-11-04T01:10:59.958Z,88
2022-11-04T01:14:25.198Z,88
2022-11-04T01:17:50.426Z,88
2022-11-04T01:21:15.691Z,88
2022-11-04T01:24:40.924Z,89
2022-11-04T01:28:06.485Z,90
2022-11-04T01:31:31.384Z,90
2022-11-04T01:34:56.618Z,91
2022-11-04T01:38:21.882Z,91
2022-11-04T01:41:47.085Z,91
2022-11-04T01:45:12.344Z,90
2022-11-04T01:48:37.583Z,90
2022-11-04T01:52:02.814Z,91
2022-11-04T01:55:28.071Z,90
2022-11-04T01:58:53.288Z,91
2022-11-04T02:02:18.680Z,91
2022-11-04T02:05:43.784Z,91
2022-11-04T02:12:34.326Z,92
2022-11-04T02:15:59.558Z,92
2022-11-04T02:19:24.813Z,91
2022-11-04T02:22:50.047Z,92
2022-11-04T02:26:15.299Z,92
2022-11-04T02:29:40.570Z,92
2022-11-04T02:33:06.070Z,92
2022-11-04T02:36:31.052Z,92
2022-11-04T02:39:56.300Z,92
2022-11-04T02:43:21.546Z,92
2022-11-04T02:46:46.824Z,92
2022-11-04T02:50:12.029Z,92
2022-11-04T02:53:37.279Z,92
2022-11-04T02:57:02.529Z,92
2022-11-04T03:00:27.774Z,91
2022-11-04T03:03:53.028Z,91
2022-11-04T03:07:18.283Z,92
2022-11-04T03:10:43.531Z,92
2022-11-04T03:14:08.779Z,92
2022-11-04T03:17:34.026Z,92
2022-11-04T03:20:59.288Z,92
2022-11-04T03:24:24.523Z,92
2022-11-04T03:27:49.776Z,92
2022-11-04T03:31:15.018Z,92
2022-11-04T03:34:40.292Z,92
2022-11-04T03:38:05.582Z,92
2022-11-04T03:41:30.804Z,92
2022-11-04T03:44:56.054Z,92
2022-11-04T03:48:21.313Z,92
2022-11-04T03:51:46.555Z,91
2022-11-04T03:55:11.852Z,91
2022-11-04T03:58:37.082Z,91
2022-11-04T04:02:02.402Z,91
2022-11-04T04:05:27.580Z,90
2022-11-04T04:08:52.842Z,90
2022-11-04T04:12:18.144Z,89
2022-11-04T04:15:43.360Z,90
2022-11-04T04:19:08.629Z,90
2022-11-04T04:22:33.892Z,90
2022-11-04T04:25:59.147Z,89
2022-11-04T04:29:24.443Z,89
2022-11-04T04:32:49.672Z,90
2022-11-04T04:36:14.939Z,90
2022-11-04T04:39:40.199Z,90
2022-11-04T04:43:05.625Z,90
2022-11-04T04:46:30.903Z,90
2022-11-04T04:49:57.052Z,90
2022-11-04T04:53:22.309Z,91
2022-11-04T04:56:47.627Z,91
2022-11-04T05:00:12.867Z,91
2022-11-04T05:03:42.414Z,91
2022-11-04T05:07:03.392Z,91
2022-11-04T05:10:28.669Z,91
2022-11-04T05:13:53.992Z,91
2022-11-04T05:17:19.348Z,91
2022-11-04T05:20:44.677Z,91
2022-11-04T05:24:09.894Z,91
2022-11-04T05:27:35.131Z,91
2022-11-04T05:31:00.383Z,92
2022-11-04T05:34:25.590Z,92
2022-11-04T05:37:50.871Z,92
2022-11-04T05:41:16.092Z,92
2022-11-04T05:44:41.321Z,91
2022-11-04T05:48:06.572Z,92
2022-11-04T05:51:31.816Z,92
2022-11-04T05:54:57.782Z,92
2022-11-04T05:58:23.027Z,92
2022-11-04T06:01:48.388Z,92
2022-11-04T06:05:13.538Z,92
2022-11-04T06:08:42.524Z,92
2022-11-04T06:12:04.098Z,91
2022-11-04T06:15:29.342Z,91
2022-11-04T06:18:54.579Z,92
2022-11-04T06:22:19.830Z,92
2022-11-04T06:25:45.106Z,92
2022-11-04T06:29:10.393Z,92
2022-11-04T06:32:35.612Z,91
2022-11-04T06:36:00.875Z,91
2022-11-04T06:39:26.123Z,91
2022-11-04T06:42:51.351Z,91
2022-11-04T06:46:16.627Z,91
2022-11-04T06:49:41.860Z,91
2022-11-04T06:53:07.369Z,91
2022-11-04T06:56:32.394Z,91
2022-11-04T06:59:57.654Z,91
2022-11-04T07:03:22.934Z,90
2022-11-04T07:06:48.865Z,90
2022-11-04T07:10:14.130Z,90
2022-11-04T07:13:39.360Z,90
2022-11-04T07:17:04.612Z,89
2022-11-04T07:20:29.892Z,89
2022-11-04T07:23:55.139Z,89
2022-11-04T07:27:20.403Z,89
2022-11-04T07:30:45.646Z,89
2022-11-04T07:34:10.926Z,89
2022-11-04T07:37:36.210Z,89
2022-11-04T07:41:01.433Z,89
2022-11-04T07:44:26.694Z,89
2022-11-04T07:47:51.961Z,89
2022-11-04T07:51:17.201Z,90
2022-11-04T07:54:42.496Z,90
2022-11-04T07:58:07.702Z,90
2022-11-04T08:01:32.966Z,90
2022-11-04T08:04:58.212Z,90
2022-11-04T08:08:23.470Z,90
2022-11-04T08:11:48.756Z,89
2022-11-04T08:15:14.013Z,89
2022-11-04T08:18:39.254Z,89
2022-11-04T08:22:04.513Z,89
2022-11-04T08:25:29.809Z,89
2022-11-04T08:28:55.076Z,89
2022-11-04T08:32:20.306Z,88
2022-11-04T08:35:45.562Z,88
2022-11-04T08:39:11.428Z,88
2022-11-04T08:42:36.079Z,88
2022-11-04T08:46:01.377Z,89
2022-11-04T08:49:26.616Z,89
2022-11-04T08:52:51.851Z,89
2022-11-04T08:56:17.114Z,89
2022-11-04T08:59:42.375Z,89
2022-11-04T09:03:07.982Z,89
2022-11-04T09:06:32.957Z,89
2022-11-04T09:09:58.305Z,89
2022-11-04T09:13:23.571Z,89
2022-11-04T09:16:48.834Z,89
2022-11-04T09:20:14.317Z,89
2022-11-04T09:23:39.406Z,89
2022-11-04T09:27:04.672Z,89
2022-11-04T09:30:29.941Z,88
2022-11-04T09:33:55.222Z,88
2022-11-04T09:37:20.602Z,88
2022-11-04T09:40:45.727Z,88
2022-11-04T09:44:10.986Z,89
2022-11-04T09:47:36.256Z,88
2022-11-04T09:51:01.526Z,88
2022-11-04T09:54:27.011Z,87
2022-11-04T09:57:52.091Z,88
2022-11-04T10:01:17.433Z,88
2022-11-04T10:04:42.635Z,88
2022-11-04T10:08:07.900Z,87
2022-11-04T10:11:33.685Z,87
2022-11-04T10:14:58.811Z,86
2022-11-04T10:18:24.061Z,87
2022-11-04T10:21:49.330Z,86
2022-11-04T10:25:14.617Z,86
2022-11-04T10:28:40.187Z,85
2022-11-04T10:32:05.206Z,86
2022-11-04T10:35:30.522Z,85
2022-11-04T10:38:55.794Z,85
2022-11-04T10:42:21.058Z,85
2022-11-04T10:45:46.447Z,85
2022-11-04T10:49:11.625Z,85
2022-11-04T10:52:36.920Z,85
2022-11-04T10:56:02.224Z,85
2022-11-04T10:59:27.510Z,85
2022-11-04T11:02:52.782Z,86
2022-11-04T11:06:18.021Z,86
2022-11-04T11:09:43.295Z,86
2022-11-04T11:13:08.778Z,86
2022-11-04T11:16:33.796Z,86
2022-11-04T11:19:59.080Z,86
2022-11-04T11:23:24.281Z,86
2022-11-04T11:26:49.541Z,86
2022-11-04T11:30:14.823Z,85
2022-11-04T11:33:40.076Z,85
2022-11-04T11:37:05.349Z,85
2022-11-04T11:40:30.610Z,84
2022-11-04T11:43:55.884Z,84
2022-11-04T11:47:21.132Z,84
2022-11-04T11:50:46.397Z,84
2022-11-04T11:54:11.691Z,84
2022-11-04T11:57:36.924Z,83
2022-11-04T12:01:06.808Z,81
2022-11-04T12:11:18.146Z,81
2022-11-04T12:14:47.725Z,81
2022-11-04T12:18:08.727Z,82
2022-11-04T12:21:34.032Z,81
2022-11-04T12:24:59.320Z,81
2022-11-04T12:28:24.743Z,80
2022-11-04T12:31:49.923Z,82
2022-11-04T12:35:15.218Z,81
2022-11-04T12:38:40.546Z,79
2022-11-04T12:42:20.426Z,81
2022-11-04T12:45:31.166Z,81
2022-11-04T12:48:58.402Z,81
2022-11-04T12:52:21.742Z,81
2022-11-04T12:55:47.027Z,80
2022-11-04T12:59:12.340Z,81
2022-11-04T13:02:37.700Z,82
2022-11-04T13:06:02.941Z,79
2022-11-04T13:09:28.220Z,80
2022-11-04T13:12:53.506Z,79
2022-11-04T13:16:18.796Z,80
2022-11-04T13:19:44.117Z,80
2022-11-04T13:23:09.628Z,81
2022-11-04T13:26:34.670Z,81
2022-11-04T13:29:59.976Z,80
2022-11-04T13:33:25.278Z,79
2022-11-04T13:36:50.601Z,79
2022-11-04T13:40:15.842Z,80
2022-11-04T13:43:41.150Z,79
2022-11-04T13:47:06.443Z,80
2022-11-04T13:50:31.728Z,80
2022-11-04T13:53:57.052Z,80
2022-11-04T13:57:22.354Z,79
2022-11-04T14:00:47.635Z,79
2022-11-04T14:04:12.927Z,78
2022-11-04T14:07:38.226Z,79
2022-11-04T14:11:03.543Z,79
2022-11-04T14:14:28.811Z,79
2022-11-04T14:17:54.104Z,80
2022-11-04T14:21:19.409Z,80
2022-11-04T14:24:44.692Z,80
2022-11-04T14:28:10.017Z,80
2022-11-04T15:04:13.571Z,81
2022-11-04T15:07:37.657Z,81
2022-11-04T15:11:02.942Z,81
2022-11-04T15:14:28.262Z,81
2022-11-04T15:17:53.603Z,81
2022-11-04T15:21:18.977Z,81
2022-11-04T15:24:44.237Z,81
2022-11-04T15:28:09.562Z,81
2022-11-04T15:31:34.843Z,81
2022-11-04T15:35:00.144Z,80
2022-11-04T15:38:25.569Z,80
2022-11-04T15:41:50.750Z,81
2022-11-04T15:45:16.023Z,81
2022-11-04T15:48:41.315Z,82
2022-11-04T15:52:06.600Z,82
2022-11-04T15:55:31.906Z,82
2022-11-04T15:58:57.169Z,82
2022-11-04T16:02:22.501Z,82
2022-11-04T16:05:47.718Z,82
2022-11-04T16:09:12.970Z,82
2022-11-04T16:12:38.256Z,83
2022-11-04T16:16:03.509Z,83
2022-11-04T16:19:28.768Z,83
2022-11-04T16:22:54.068Z,83
2022-11-04T16:26:19.320Z,83
2022-11-04T16:29:47.839Z,83
2022-11-04T16:33:10.039Z,83
2022-11-04T16:36:35.966Z,84
2022-11-04T16:40:00.703Z,84
2022-11-04T16:43:25.905Z,84
2022-11-04T16:46:51.207Z,85
2022-11-04T16:50:16.440Z,85
2022-11-04T16:53:41.693Z,85
2022-11-04T16:57:06.952Z,85
2022-11-04T17:00:32.210Z,86
2022-11-04T17:03:57.470Z,86
2022-11-04T17:07:35.111Z,86
2022-11-04T17:10:47.973Z,86
2022-11-04T17:14:13.225Z,85
2022-11-04T17:17:38.470Z,85
2022-11-04T17:21:03.723Z,85
2022-11-04T17:24:28.935Z,85
2022-11-04T17:27:54.195Z,85
2022-11-04T17:31:19.460Z,85
2022-11-04T17:34:44.718Z,85
2022-11-04T17:38:09.996Z,85
2022-11-04T17:41:35.235Z,85
2022-11-04T17:45:00.486Z,85
2022-11-04T17:48:25.740Z,85
2022-11-04T17:51:50.996Z,85
2022-11-04T17:55:18.079Z,85
2022-11-04T17:58:41.495Z,85
2022-11-04T18:02:06.942Z,85
2022-11-04T18:05:32.038Z,85
2022-11-04T18:08:57.305Z,85
2022-11-04T18:12:22.591Z,85
2022-11-04T18:15:47.839Z,85
2022-11-04T18:19:13.090Z,85
2022-11-04T18:22:38.358Z,85
2022-11-04T18:26:03.613Z,85
2022-11-04T18:29:28.953Z,85
2022-11-04T18:32:54.174Z,85
2022-11-04T18:36:19.468Z,85
2022-11-04T18:39:44.715Z,85
2022-11-04T18:43:10.211Z,85
2022-11-04T18:46:35.311Z,85
2022-11-04T18:50:00.537Z,86
2022-11-04T18:53:27.087Z,86
2022-11-04T18:56:51.138Z,86
2022-11-04T19:00:17.350Z,86
2022-11-04T19:03:41.995Z,86
2022-11-04T19:07:07.269Z,86
2022-11-04T19:10:32.677Z,86
2022-11-04T19:13:57.817Z,86
2022-11-04T19:17:23.124Z,86
2022-11-04T19:20:48.546Z,86
2022-11-04T19:24:13.894Z,86
2022-11-04T19:27:39.272Z,86
2022-11-04T19:31:04.632Z,86
2022-11-04T19:34:29.998Z,86
2022-11-04T19:37:55.359Z,86
2022-11-04T19:41:20.637Z,86
2022-11-04T19:44:45.958Z,86
2022-11-04T19:48:11.545Z,86
2022-11-04T19:51:36.558Z,86
2022-11-04T19:55:01.912Z,87
2022-11-04T19:58:27.183Z,86
2022-11-04T20:01:52.568Z,86
2022-11-04T20:05:17.848Z,86
2022-11-04T20:08:43.146Z,86
2022-11-04T20:12:08.553Z,86
2022-11-04T20:15:33.844Z,86
2022-11-04T20:18:59.124Z,86
2022-11-04T20:22:24.414Z,86
2022-11-04T20:25:49.750Z,86
2022-11-04T20:29:15.064Z,86
2022-11-04T20:32:40.313Z,86
2022-11-04T20:36:05.616Z,86
2022-11-04T20:39:30.856Z,86
2022-11-04T20:42:56.088Z,86
2022-11-04T20:46:21.459Z,86
2022-11-04T20:49:46.620Z,85
2022-11-04T20:53:11.866Z,86
2022-11-04T20:56:37.126Z,86
2022-11-04T21:00:02.393Z,85
2022-11-04T21:03:27.680Z,85
2022-11-04T21:06:52.923Z,85
2022-11-04T21:10:18.175Z,85
2022-11-04T21:13:43.412Z,85
2022-11-04T21:17:08.669Z,85
2022-11-04T21:20:33.950Z,85
2022-11-04T21:23:59.249Z,85
2022-11-04T21:27:24.488Z,85
2022-11-04T21:30:49.746Z,85
2022-11-04T21:34:15.005Z,84
2022-11-04T21:37:40.384Z,85
2022-11-04T21:41:05.527Z,85
2022-11-04T21:44:30.780Z,84
2022-11-04T21:47:56.007Z,85
2022-11-04T21:51:21.284Z,85
2022-11-04T21:54:46.549Z,85
2022-11-04T21:58:11.995Z,85
2022-11-04T22:01:37.125Z,85
2022-11-04T22:05:02.272Z,85
2022-11-04T22:08:27.521Z,86
2022-11-04T22:11:52.842Z,86
2022-11-04T22:15:18.071Z,86
2022-11-04T22:18:43.344Z,86
2022-11-04T22:22:08.586Z,86
2022-11-04T22:25:33.894Z,85
2022-11-04T22:28:59.164Z,86
2022-11-04T22:32:24.401Z,86
2022-11-04T22:35:49.652Z,86
2022-11-04T22:39:16.671Z,87
2022-11-04T22:42:40.178Z,87
2022-11-04T22:46:05.452Z,87
2022-11-04T22:49:30.720Z,87
2022-11-04T22:52:55.973Z,87
2022-11-04T22:56:21.938Z,87
2022-11-04T22:59:47.209Z,87
2022-11-04T23:03:12.824Z,87
2022-11-04T23:06:37.754Z,87
2022-11-04T23:10:03.002Z,87
2022-11-04T23:13:28.254Z,88
2022-11-04T23:16:53.487Z,88
2022-11-04T23:20:18.783Z,88
2022-11-04T23:23:44.035Z,88
2022-11-04T23:27:09.289Z,87
2022-11-04T23:30:34.563Z,88
2022-11-04T23:33:59.824Z,88
2022-11-04T23:37:25.184Z,88
2022-11-04T23:40:50.328Z,88
2022-11-04T23:44:15.582Z,88
2022-11-04T23:47:40.826Z,88
2022-11-04T23:51:06.096Z,87
2022-11-04T23:54:31.366Z,87
2022-11-04T23:57:56.610Z,87
